Automated Weather Station

Magsaysay, Infanta, Quezon


Readings

as of November 11, 2016 04:01 PM
Wind Speed
3.4 mm
Rainfall Amount
0.14 mm
Rainfall Intensity
11.3 mm
Air Temperature
mm
Wind Direction
96 mm
Air Humidity
97.7 mm

Data Source: PREDICT (Advanced Science and Technology Institute)

12 HOUR DATA

PREVIOUS DATA

From
To
DateTime Wind Speed Rain Amount Rain Intensity Air Temperature Air Pressure Wind Direction Air Humidity
October 26, 2013 12:45 PM 5.4 0 mm 0 21.3 932.03 68 92.3
October 26, 2013 12:30 PM 8.4 0 mm 0 21.9 932.17 102 87.3
October 26, 2013 12:15 PM 3.7 0 mm 0 23.1 932.3 31 83.3
October 26, 2013 12:00 PM 8.8 0 mm 0 21.7 932.57 75 89.7
October 26, 2013 11:45 AM 0 0 mm 0 21.7 932.83 0 89.9
October 26, 2013 11:30 AM 8.5 0.06 mm 0 21.3 932.7 39 90.8
October 26, 2013 11:15 AM 12.9 0 mm 0 22.1 932.83 92 86.5
October 26, 2013 11:00 AM 0 0 mm 0 21.8 932.97 0 85.9
October 26, 2013 10:45 AM 0 0 mm 0 22.5 932.97 0 84.7
October 26, 2013 10:30 AM 5.8 0 mm 0 22 932.97 113 87.9
October 26, 2013 10:15 AM 5.5 0 mm 0 21.3 933.1 120 90.3
October 26, 2013 10:00 AM 5 0 mm 0 21.3 933.1 277 92.5
October 26, 2013 09:45 AM 5.3 0 mm 0 20.9 933.1 343 93.8
October 26, 2013 09:30 AM 13.7 0 mm 0 20.8 932.97 77 93.6
October 26, 2013 09:15 AM 0 0 mm 0 20.7 933.1 0 93.2
October 26, 2013 09:00 AM 7.8 0 mm 0 20.6 932.97 64 92.9
October 26, 2013 08:45 AM 0 0 mm 0 20.5 932.83 0 92.5
October 26, 2013 08:30 AM 0 0 mm 0 20.5 932.7 0 92.4
October 26, 2013 08:15 AM 0 0 mm 0 20.6 932.43 0 93.9
October 26, 2013 08:00 AM 0 0.08 mm 0 20.6 932.43 0 93.1
October 26, 2013 07:45 AM 4.8 0 mm 0 20.7 932.17 351 93
October 26, 2013 07:30 AM 7.4 0 mm 0 20.2 932.03 35 93.5
October 26, 2013 07:15 AM 0 0 mm 0 20 932.03 0 94.6
October 26, 2013 07:00 AM 5 0.4 mm 0 20.2 931.77 8 94.7
October 26, 2013 06:45 AM 4.7 1.49 mm 11.2 20.4 931.63 73 94.8
October 26, 2013 06:30 AM 4.3 0.02 mm 0.9 20.4 931.63 66 94.9
October 26, 2013 06:15 AM 0 0 mm 0 20.3 931.37 0 94.9
October 26, 2013 06:00 AM 1.4 0 mm 0 20.3 931.23 158 94.8
October 26, 2013 05:45 AM 7.8 0 mm 0 20.4 930.83 95 94.9
October 26, 2013 05:30 AM 3.3 0 mm 0 20.4 930.83 120 94.8